sensor_id;sensor_type;location;lat;lon;timestamp;pressure;altitude;pressure_sealevel;temperature;humidity
17635;BME280;8936;49.010;12.120;2023-02-01T00:01:18;98339.00;;;4.89;100.00
17635;BME280;8936;49.010;12.120;2023-02-01T00:03:45;98330.72;;;4.85;100.00
17635;BME280;8936;49.010;12.120;2023-02-01T00:06:11;98329.13;;;4.78;100.00
17635;BME280;8936;49.010;12.120;2023-02-01T00:08:39;98323.25;;;4.76;100.00
17635;BME280;8936;49.010;12.120;2023-02-01T00:11:06;98318.78;;;4.76;100.00
17635;BME280;8936;49.010;12.120;2023-02-01T00:13:34;98330.28;;;4.88;100.00
17635;BME280;8936;49.010;12.120;2023-02-01T00:16:03;98319.94;;;4.80;100.00
17635;BME280;8936;49.010;12.120;2023-02-01T00:18:30;98323.84;;;4.78;100.00
17635;BME280;8936;49.010;12.120;2023-02-01T00:20:56;98313.25;;;4.78;100.00
17635;BME280;8936;49.010;12.120;2023-02-01T00:23:23;98315.56;;;4.68;100.00
17635;BME280;8936;49.010;12.120;2023-02-01T00:25:50;98308.88;;;4.65;100.00
17635;BME280;8936;49.010;12.120;2023-02-01T00:28:17;98312.66;;;4.76;100.00
17635;BME280;8936;49.010;12.120;2023-02-01T00:30:43;98310.88;;;4.70;100.00
17635;BME280;8936;49.010;12.120;2023-02-01T00:33:10;98310.03;;;4.76;100.00
17635;BME280;8936;49.010;12.120;2023-02-01T00:35:36;98323.19;;;4.82;100.00
17635;BME280;8936;49.010;12.120;2023-02-01T00:38:02;98312.50;;;4.71;100.00
17635;BME280;8936;49.010;12.120;2023-02-01T00:40:29;98306.34;;;4.77;100.00
17635;BME280;8936;49.010;12.120;2023-02-01T00:42:56;98311.03;;;4.75;100.00
17635;BME280;8936;49.010;12.120;2023-02-01T00:45:23;98310.84;;;4.76;100.00
17635;BME280;8936;49.010;12.120;2023-02-01T00:47:49;98313.09;;;4.73;100.00
17635;BME280;8936;49.010;12.120;2023-02-01T00:50:16;98302.66;;;4.78;100.00
17635;BME280;8936;49.010;12.120;2023-02-01T00:52:42;98303.25;;;4.80;100.00
17635;BME280;8936;49.010;12.120;2023-02-01T00:55:08;98308.41;;;4.75;100.00
17635;BME280;8936;49.010;12.120;2023-02-01T00:57:35;98300.88;;;4.72;100.00
17635;BME280;8936;49.010;12.120;2023-02-01T01:00:03;98309.16;;;4.82;100.00
17635;BME280;8936;49.010;12.120;2023-02-01T01:02:29;98302.94;;;4.70;100.00
17635;BME280;8936;49.010;12.120;2023-02-01T01:04:56;98299.75;;;4.86;100.00
17635;BME280;8936;49.010;12.120;2023-02-01T01:07:22;98299.38;;;4.82;100.00
17635;BME280;8936;49.010;12.120;2023-02-01T01:09:48;98295.50;;;4.85;100.00
17635;BME280;8936;49.010;12.120;2023-02-01T01:12:15;98300.13;;;4.89;100.00
17635;BME280;8936;49.010;12.120;2023-02-01T01:14:41;98308.44;;;4.93;100.00
17635;BME280;8936;49.010;12.120;2023-02-01T01:17:09;98304.88;;;4.81;100.00
17635;BME280;8936;49.010;12.120;2023-02-01T01:19:35;98307.69;;;4.86;100.00
17635;BME280;8936;49.010;12.120;2023-02-01T01:22:02;98297.38;;;4.78;100.00
17635;BME280;8936;49.010;12.120;2023-02-01T01:24:28;98304.72;;;4.76;100.00
17635;BME280;8936;49.010;12.120;2023-02-01T01:26:55;98289.97;;;4.86;100.00
17635;BME280;8936;49.010;12.120;2023-02-01T01:29:21;98300.19;;;4.83;100.00
17635;BME280;8936;49.010;12.120;2023-02-01T01:31:48;98291.31;;;4.71;100.00
17635;BME280;8936;49.010;12.120;2023-02-01T01:34:16;98305.91;;;4.80;100.00
17635;BME280;8936;49.010;12.120;2023-02-01T01:36:42;98294.72;;;4.78;100.00
17635;BME280;8936;49.010;12.120;2023-02-01T01:39:08;98298.47;;;4.70;100.00
17635;BME280;8936;49.010;12.120;2023-02-01T01:41:35;98299.16;;;4.84;100.00
17635;BME280;8936;49.010;12.120;2023-02-01T01:44:02;98290.25;;;4.78;100.00
17635;BME280;8936;49.010;12.120;2023-02-01T01:46:29;98286.41;;;4.74;100.00
17635;BME280;8936;49.010;12.120;2023-02-01T01:48:58;98289.00;;;4.81;100.00
17635;BME280;8936;49.010;12.120;2023-02-01T01:51:27;98286.94;;;4.83;100.00
17635;BME280;8936;49.010;12.120;2023-02-01T01:53:57;98276.53;;;4.88;100.00
17635;BME280;8936;49.010;12.120;2023-02-01T01:56:25;98286.50;;;4.86;100.00
17635;BME280;8936;49.010;12.120;2023-02-01T01:58:52;98275.91;;;4.86;100.00
17635;BME280;8936;49.010;12.120;2023-02-01T02:01:19;98275.81;;;4.74;100.00
17635;BME280;8936;49.010;12.120;2023-02-01T02:03:45;98272.94;;;4.82;100.00
17635;BME280;8936;49.010;12.120;2023-02-01T02:06:15;98262.53;;;4.81;100.00
17635;BME280;8936;49.010;12.120;2023-02-01T02:08:44;98268.28;;;4.78;100.00
17635;BME280;8936;49.010;12.120;2023-02-01T02:11:11;98265.19;;;4.81;100.00
17635;BME280;8936;49.010;12.120;2023-02-01T02:13:38;98261.09;;;4.85;100.00
17635;BME280;8936;49.010;12.120;2023-02-01T02:16:13;98273.19;;;4.74;100.00
17635;BME280;8936;49.010;12.120;2023-02-01T02:18:44;98256.28;;;4.75;100.00
17635;BME280;8936;49.010;12.120;2023-02-01T02:21:16;98256.06;;;4.77;100.00
17635;BME280;8936;49.010;12.120;2023-02-01T02:24:01;98255.84;;;4.78;100.00
17635;BME280;8936;49.010;12.120;2023-02-01T02:26:56;98247.78;;;4.73;100.00
17635;BME280;8936;49.010;12.120;2023-02-01T02:32:14;98249.75;;;4.78;100.00
17635;BME280;8936;49.010;12.120;2023-02-01T02:34:47;98256.34;;;4.69;100.00
17635;BME280;8936;49.010;12.120;2023-02-01T02:37:19;98248.88;;;4.84;100.00
17635;BME280;8936;49.010;12.120;2023-02-01T02:39:53;98255.56;;;4.86;100.00
17635;BME280;8936;49.010;12.120;2023-02-01T02:42:24;98243.72;;;4.89;100.00
17635;BME280;8936;49.010;12.120;2023-02-01T02:45:12;98247.25;;;4.83;100.00
17635;BME280;8936;49.010;12.120;2023-02-01T02:48:02;98241.53;;;4.86;100.00
17635;BME280;8936;49.010;12.120;2023-02-01T02:50:35;98242.56;;;4.85;100.00
17635;BME280;8936;49.010;12.120;2023-02-01T02:53:21;98242.50;;;4.92;100.00
17635;BME280;8936;49.010;12.120;2023-02-01T02:56:07;98238.44;;;4.89;100.00
17635;BME280;8936;49.010;12.120;2023-02-01T02:58:53;98244.91;;;4.93;100.00
17635;BME280;8936;49.010;12.120;2023-02-01T03:01:37;98247.38;;;4.95;100.00
17635;BME280;8936;49.010;12.120;2023-02-01T03:04:22;98244.97;;;4.86;100.00
17635;BME280;8936;49.010;12.120;2023-02-01T03:06:52;98235.00;;;4.88;100.00
17635;BME280;8936;49.010;12.120;2023-02-01T03:09:20;98234.25;;;4.81;100.00
17635;BME280;8936;49.010;12.120;2023-02-01T03:11:48;98239.06;;;4.91;100.00
17635;BME280;8936;49.010;12.120;2023-02-01T03:14:35;98231.44;;;5.01;100.00
17635;BME280;8936;49.010;12.120;2023-02-01T03:17:04;98223.75;;;4.93;100.00
17635;BME280;8936;49.010;12.120;2023-02-01T03:19:33;98225.59;;;4.93;100.00
17635;BME280;8936;49.010;12.120;2023-02-01T03:22:03;98223.38;;;4.89;100.00
17635;BME280;8936;49.010;12.120;2023-02-01T03:24:32;98232.44;;;5.00;100.00
17635;BME280;8936;49.010;12.120;2023-02-01T03:27:01;98227.22;;;4.94;100.00
17635;BME280;8936;49.010;12.120;2023-02-01T03:29:29;98222.28;;;4.97;100.00
17635;BME280;8936;49.010;12.120;2023-02-01T03:31:57;98218.63;;;4.98;100.00
17635;BME280;8936;49.010;12.120;2023-02-01T03:34:23;98216.44;;;4.95;100.00
17635;BME280;8936;49.010;12.120;2023-02-01T03:36:50;98209.94;;;4.91;100.00
17635;BME280;8936;49.010;12.120;2023-02-01T03:39:21;98215.81;;;4.93;100.00
17635;BME280;8936;49.010;12.120;2023-02-01T03:41:51;98205.28;;;4.86;100.00
17635;BME280;8936;49.010;12.120;2023-02-01T03:44:20;98196.28;;;4.94;100.00
17635;BME280;8936;49.010;12.120;2023-02-01T03:46:49;98190.22;;;4.87;100.00
17635;BME280;8936;49.010;12.120;2023-02-01T03:49:18;98189.34;;;4.93;100.00
17635;BME280;8936;49.010;12.120;2023-02-01T03:51:46;98187.16;;;4.90;100.00
17635;BME280;8936;49.010;12.120;2023-02-01T03:54:14;98180.44;;;4.87;100.00
17635;BME280;8936;49.010;12.120;2023-02-01T03:56:42;98180.97;;;4.96;100.00
17635;BME280;8936;49.010;12.120;2023-02-01T03:59:10;98176.13;;;4.93;100.00
17635;BME280;8936;49.010;12.120;2023-02-01T04:01:37;98179.13;;;4.78;100.00
17635;BME280;8936;49.010;12.120;2023-02-01T04:04:03;98195.47;;;4.94;100.00
17635;BME280;8936;49.010;12.120;2023-02-01T04:06:30;98197.53;;;4.92;100.00
17635;BME280;8936;49.010;12.120;2023-02-01T04:08:56;98201.19;;;4.90;100.00
17635;BME280;8936;49.010;12.120;2023-02-01T04:11:23;98202.44;;;4.88;100.00
17635;BME280;8936;49.010;12.120;2023-02-01T04:13:50;98197.91;;;4.95;100.00
17635;BME280;8936;49.010;12.120;2023-02-01T04:16:17;98190.66;;;4.84;100.00
17635;BME280;8936;49.010;12.120;2023-02-01T04:18:43;98187.44;;;4.82;100.00
17635;BME280;8936;49.010;12.120;2023-02-01T04:21:09;98186.13;;;4.91;100.00
17635;BME280;8936;49.010;12.120;2023-02-01T04:23:36;98189.78;;;4.90;100.00
17635;BME280;8936;49.010;12.120;2023-02-01T04:26:03;98189.78;;;4.90;100.00
17635;BME280;8936;49.010;12.120;2023-02-01T04:28:30;98182.72;;;4.84;100.00
17635;BME280;8936;49.010;12.120;2023-02-01T04:30:57;98184.94;;;4.87;100.00
17635;BME280;8936;49.010;12.120;2023-02-01T04:33:24;98182.59;;;4.79;100.00
17635;BME280;8936;49.010;12.120;2023-02-01T04:35:50;98195.38;;;4.82;100.00
17635;BME280;8936;49.010;12.120;2023-02-01T04:38:16;98184.34;;;4.85;100.00
17635;BME280;8936;49.010;12.120;2023-02-01T04:40:43;98186.94;;;4.92;100.00
17635;BME280;8936;49.010;12.120;2023-02-01T04:43:09;98182.03;;;4.95;100.00
17635;BME280;8936;49.010;12.120;2023-02-01T04:45:35;98188.16;;;4.89;100.00
17635;BME280;8936;49.010;12.120;2023-02-01T04:48:03;98169.06;;;4.87;100.00
17635;BME280;8936;49.010;12.120;2023-02-01T04:50:29;98165.59;;;4.86;100.00
17635;BME280;8936;49.010;12.120;2023-02-01T04:52:56;98164.13;;;4.90;100.00
17635;BME280;8936;49.010;12.120;2023-02-01T04:55:22;98164.88;;;4.79;100.00
17635;BME280;8936;49.010;12.120;2023-02-01T04:57:48;98161.56;;;4.84;100.00
17635;BME280;8936;49.010;12.120;2023-02-01T05:00:15;98159.28;;;4.87;100.00
17635;BME280;8936;49.010;12.120;2023-02-01T05:02:42;98153.03;;;4.82;100.00
17635;BME280;8936;49.010;12.120;2023-02-01T05:05:09;98155.19;;;4.92;100.00
17635;BME280;8936;49.010;12.120;2023-02-01T05:07:36;98158.97;;;4.96;100.00
17635;BME280;8936;49.010;12.120;2023-02-01T05:10:02;98152.81;;;4.83;100.00
17635;BME280;8936;49.010;12.120;2023-02-01T05:12:28;98153.25;;;4.99;100.00
17635;BME280;8936;49.010;12.120;2023-02-01T05:15:13;98161.25;;;4.92;100.00
17635;BME280;8936;49.010;12.120;2023-02-01T05:17:39;98153.75;;;4.89;100.00
17635;BME280;8936;49.010;12.120;2023-02-01T05:20:06;98149.97;;;4.85;100.00
17635;BME280;8936;49.010;12.120;2023-02-01T05:22:34;98142.47;;;4.82;100.00
17635;BME280;8936;49.010;12.120;2023-02-01T05:25:00;98147.44;;;4.90;100.00
17635;BME280;8936;49.010;12.120;2023-02-01T05:27:28;98144.53;;;4.98;100.00
17635;BME280;8936;49.010;12.120;2023-02-01T05:29:54;98145.53;;;4.97;100.00
17635;BME280;8936;49.010;12.120;2023-02-01T05:32:21;98147.63;;;4.95;100.00
17635;BME280;8936;49.010;12.120;2023-02-01T05:34:47;98122.25;;;4.87;100.00
17635;BME280;8936;49.010;12.120;2023-02-01T05:37:13;98118.41;;;4.83;100.00
17635;BME280;8936;49.010;12.120;2023-02-01T05:39:41;98127.91;;;4.91;100.00
17635;BME280;8936;49.010;12.120;2023-02-01T05:42:07;98119.34;;;4.89;100.00
17635;BME280;8936;49.010;12.120;2023-02-01T05:44:34;98127.84;;;4.98;100.00
17635;BME280;8936;49.010;12.120;2023-02-01T05:47:00;98124.66;;;4.89;100.00
17635;BME280;8936;49.010;12.120;2023-02-01T05:49:26;98125.09;;;4.86;100.00
17635;BME280;8936;49.010;12.120;2023-02-01T05:51:53;98118.91;;;4.92;100.00
17635;BME280;8936;49.010;12.120;2023-02-01T05:54:19;98106.00;;;4.84;100.00
17635;BME280;8936;49.010;12.120;2023-02-01T05:56:47;98109.38;;;4.91;100.00
17635;BME280;8936;49.010;12.120;2023-02-01T05:59:13;98113.78;;;4.97;100.00
17635;BME280;8936;49.010;12.120;2023-02-01T06:01:39;98112.44;;;5.06;100.00
17635;BME280;8936;49.010;12.120;2023-02-01T06:04:06;98099.38;;;4.93;100.00
17635;BME280;8936;49.010;12.120;2023-02-01T06:06:32;98103.94;;;4.86;100.00
17635;BME280;8936;49.010;12.120;2023-02-01T06:08:59;98104.38;;;4.83;100.00
17635;BME280;8936;49.010;12.120;2023-02-01T06:11:25;98100.69;;;4.84;100.00
17635;BME280;8936;49.010;12.120;2023-02-01T06:13:54;98101.16;;;4.81;100.00
17635;BME280;8936;49.010;12.120;2023-02-01T06:16:21;98097.03;;;4.85;100.00
17635;BME280;8936;49.010;12.120;2023-02-01T06:18:47;98096.59;;;4.88;100.00
17635;BME280;8936;49.010;12.120;2023-02-01T06:21:14;98094.66;;;4.77;100.00
17635;BME280;8936;49.010;12.120;2023-02-01T06:23:48;98086.13;;;4.93;100.00
17635;BME280;8936;49.010;12.120;2023-02-01T06:26:14;98089.47;;;4.88;100.00
17635;BME280;8936;49.010;12.120;2023-02-01T06:28:42;98087.34;;;4.79;100.00
17635;BME280;8936;49.010;12.120;2023-02-01T06:31:09;98094.06;;;4.93;100.00
17635;BME280;8936;49.010;12.120;2023-02-01T06:33:36;98095.47;;;4.96;100.00
17635;BME280;8936;49.010;12.120;2023-02-01T06:36:04;98092.56;;;4.85;100.00
17635;BME280;8936;49.010;12.120;2023-02-01T06:38:31;98081.97;;;4.85;100.00
17635;BME280;8936;49.010;12.120;2023-02-01T06:40:59;98083.88;;;4.78;100.00
17635;BME280;8936;49.010;12.120;2023-02-01T06:43:26;98093.22;;;4.81;100.00
17635;BME280;8936;49.010;12.120;2023-02-01T06:45:58;98087.34;;;4.79;100.00
17635;BME280;8936;49.010;12.120;2023-02-01T06:48:26;98086.38;;;4.92;100.00
17635;BME280;8936;49.010;12.120;2023-02-01T06:50:52;98068.22;;;4.77;100.00
17635;BME280;8936;49.010;12.120;2023-02-01T06:53:19;98093.00;;;4.82;100.00
17635;BME280;8936;49.010;12.120;2023-02-01T06:55:51;98087.16;;;4.92;100.00
17635;BME280;8936;49.010;12.120;2023-02-01T06:58:17;98092.44;;;4.92;100.00
17635;BME280;8936;49.010;12.120;2023-02-01T07:00:43;98086.75;;;4.95;100.00
17635;BME280;8936;49.010;12.120;2023-02-01T07:03:09;98090.84;;;4.91;100.00
17635;BME280;8936;49.010;12.120;2023-02-01T07:05:37;98091.13;;;4.83;100.00
17635;BME280;8936;49.010;12.120;2023-02-01T07:08:04;98088.78;;;4.93;100.00
17635;BME280;8936;49.010;12.120;2023-02-01T07:10:30;98088.13;;;4.98;100.00
17635;BME280;8936;49.010;12.120;2023-02-01T07:12:56;98098.19;;;4.89;100.00
17635;BME280;8936;49.010;12.120;2023-02-01T07:15:23;98105.09;;;4.90;100.00
17635;BME280;8936;49.010;12.120;2023-02-01T07:17:49;98102.31;;;4.85;100.00
17635;BME280;8936;49.010;12.120;2023-02-01T07:20:16;98102.03;;;4.93;100.00
17635;BME280;8936;49.010;12.120;2023-02-01T07:22:43;98105.84;;;4.97;100.00
17635;BME280;8936;49.010;12.120;2023-02-01T07:25:10;98127.47;;;4.94;100.00
17635;BME280;8936;49.010;12.120;2023-02-01T07:27:37;98129.88;;;4.96;100.00
17635;BME280;8936;49.010;12.120;2023-02-01T07:30:03;98134.97;;;4.97;100.00
17635;BME280;8936;49.010;12.120;2023-02-01T07:32:30;98138.19;;;4.99;100.00
17635;BME280;8936;49.010;12.120;2023-02-01T07:34:57;98152.22;;;5.00;100.00
17635;BME280;8936;49.010;12.120;2023-02-01T07:37:23;98160.25;;;4.93;100.00
17635;BME280;8936;49.010;12.120;2023-02-01T07:39:51;98161.56;;;4.84;100.00
17635;BME280;8936;49.010;12.120;2023-02-01T07:42:17;98162.94;;;4.68;100.00
17635;BME280;8936;49.010;12.120;2023-02-01T07:44:44;98167.97;;;4.76;100.00
17635;BME280;8936;49.010;12.120;2023-02-01T07:47:10;98165.53;;;4.75;100.00
17635;BME280;8936;49.010;12.120;2023-02-01T07:49:36;98154.81;;;4.70;100.00
17635;BME280;8936;49.010;12.120;2023-02-01T07:52:03;98148.03;;;4.74;100.00
17635;BME280;8936;49.010;12.120;2023-02-01T07:54:29;98138.69;;;4.71;100.00
17635;BME280;8936;49.010;12.120;2023-02-01T07:56:57;98144.94;;;4.77;100.00
17635;BME280;8936;49.010;12.120;2023-02-01T07:59:23;98150.97;;;4.84;100.00
17635;BME280;8936;49.010;12.120;2023-02-01T08:01:49;98151.13;;;4.89;100.00
17635;BME280;8936;49.010;12.120;2023-02-01T08:04:15;98156.06;;;4.85;100.00
17635;BME280;8936;49.010;12.120;2023-02-01T08:06:41;98140.75;;;4.87;100.00
17635;BME280;8936;49.010;12.120;2023-02-01T08:09:07;98143.91;;;4.78;100.00
17635;BME280;8936;49.010;12.120;2023-02-01T08:11:35;98134.09;;;4.85;100.00
17635;BME280;8936;49.010;12.120;2023-02-01T08:14:04;98141.34;;;4.89;100.00
17635;BME280;8936;49.010;12.120;2023-02-01T08:16:31;98133.78;;;4.93;100.00
17635;BME280;8936;49.010;12.120;2023-02-01T08:18:59;98144.22;;;4.88;100.00
17635;BME280;8936;49.010;12.120;2023-02-01T08:21:26;98150.53;;;4.87;100.00
17635;BME280;8936;49.010;12.120;2023-02-01T08:24:01;98148.47;;;4.89;100.00
17635;BME280;8936;49.010;12.120;2023-02-01T08:26:27;98153.91;;;4.94;100.00
17635;BME280;8936;49.010;12.120;2023-02-01T08:28:54;98147.25;;;4.92;100.00
17635;BME280;8936;49.010;12.120;2023-02-01T08:31:23;98143.09;;;4.96;100.00
17635;BME280;8936;49.010;12.120;2023-02-01T08:33:51;98152.66;;;4.97;100.00
17635;BME280;8936;49.010;12.120;2023-02-01T08:36:18;98153.03;;;4.82;100.00
17635;BME280;8936;49.010;12.120;2023-02-01T08:38:44;98136.88;;;4.90;100.00
17635;BME280;8936;49.010;12.120;2023-02-01T08:41:11;98129.59;;;4.85;100.00
17635;BME280;8936;49.010;12.120;2023-02-01T08:43:38;98136.34;;;4.81;100.00
17635;BME280;8936;49.010;12.120;2023-02-01T08:46:05;98129.59;;;4.85;100.00
17635;BME280;8936;49.010;12.120;2023-02-01T08:48:33;98125.84;;;4.93;100.00
17635;BME280;8936;49.010;12.120;2023-02-01T08:51:00;98135.69;;;4.86;100.00
17635;BME280;8936;49.010;12.120;2023-02-01T08:53:27;98138.25;;;4.93;100.00
17635;BME280;8936;49.010;12.120;2023-02-01T08:55:53;98144.97;;;4.95;100.00
17635;BME280;8936;49.010;12.120;2023-02-01T08:58:20;98145.22;;;5.05;100.00
17635;BME280;8936;49.010;12.120;2023-02-01T09:00:46;98132.16;;;4.92;100.00
17635;BME280;8936;49.010;12.120;2023-02-01T09:03:14;98127.09;;;4.90;100.00
17635;BME280;8936;49.010;12.120;2023-02-01T09:05:41;98131.94;;;4.94;100.00
17635;BME280;8936;49.010;12.120;2023-02-01T09:08:08;98126.28;;;4.90;100.00
17635;BME280;8936;49.010;12.120;2023-02-01T09:10:34;98127.16;;;5.02;100.00
17635;BME280;8936;49.010;12.120;2023-02-01T09:13:01;98123.44;;;4.92;100.00
17635;BME280;8936;49.010;12.120;2023-02-01T09:15:28;98129.66;;;4.97;100.00
17635;BME280;8936;49.010;12.120;2023-02-01T09:17:54;98116.44;;;4.97;100.00
17635;BME280;8936;49.010;12.120;2023-02-01T09:20:20;98121.03;;;5.02;100.00
17635;BME280;8936;49.010;12.120;2023-02-01T09:22:50;98128.19;;;5.01;100.00
17635;BME280;8936;49.010;12.120;2023-02-01T09:25:17;98139.38;;;5.03;100.00
17635;BME280;8936;49.010;12.120;2023-02-01T09:27:43;98146.13;;;4.99;100.00
17635;BME280;8936;49.010;12.120;2023-02-01T09:30:10;98151.72;;;5.09;100.00
17635;BME280;8936;49.010;12.120;2023-02-01T09:32:36;98163.75;;;5.05;100.00
17635;BME280;8936;49.010;12.120;2023-02-01T09:35:03;98168.03;;;5.06;100.00
17635;BME280;8936;49.010;12.120;2023-02-01T09:37:29;98168.78;;;5.13;100.00
17635;BME280;8936;49.010;12.120;2023-02-01T09:39:57;98166.91;;;5.14;100.00
17635;BME280;8936;49.010;12.120;2023-02-01T09:42:40;98163.03;;;5.16;100.00
17635;BME280;8936;49.010;12.120;2023-02-01T09:45:14;98161.03;;;5.12;100.00
17635;BME280;8936;49.010;12.120;2023-02-01T09:47:45;98158.47;;;5.05;100.00
17635;BME280;8936;49.010;12.120;2023-02-01T09:50:15;98165.97;;;5.08;100.00
17635;BME280;8936;49.010;12.120;2023-02-01T09:52:45;98172.00;;;5.15;100.00
17635;BME280;8936;49.010;12.120;2023-02-01T09:55:16;98162.75;;;5.06;100.00
17635;BME280;8936;49.010;12.120;2023-02-01T09:57:45;98174.06;;;5.13;100.00
17635;BME280;8936;49.010;12.120;2023-02-01T10:00:16;98168.84;;;5.07;100.00
17635;BME280;8936;49.010;12.120;2023-02-01T10:02:44;98178.31;;;5.14;100.00
17635;BME280;8936;49.010;12.120;2023-02-01T10:05:12;98172.13;;;5.20;100.00
17635;BME280;8936;49.010;12.120;2023-02-01T10:07:41;98167.59;;;5.09;100.00
17635;BME280;8936;49.010;12.120;2023-02-01T10:10:11;98173.53;;;5.05;100.00
17635;BME280;8936;49.010;12.120;2023-02-01T10:15:37;98166.19;;;5.07;100.00
17635;BME280;8936;49.010;12.120;2023-02-01T10:18:23;98164.13;;;5.09;100.00
17635;BME280;8936;49.010;12.120;2023-02-01T10:20:54;98174.06;;;5.13;100.00
17635;BME280;8936;49.010;12.120;2023-02-01T10:23:27;98167.34;;;5.11;100.00
17635;BME280;8936;49.010;12.120;2023-02-01T10:25:55;98158.97;;;5.14;100.00
17635;BME280;8936;49.010;12.120;2023-02-01T10:28:22;98165.53;;;5.11;100.00
17635;BME280;8936;49.010;12.120;2023-02-01T10:30:51;98166.13;;;5.13;100.00
17635;BME280;8936;49.010;12.120;2023-02-01T10:33:22;98154.56;;;5.08;100.00
17635;BME280;8936;49.010;12.120;2023-02-01T10:35:51;98165.25;;;5.01;100.00
17635;BME280;8936;49.010;12.120;2023-02-01T10:38:21;98142.50;;;5.12;100.00
17635;BME280;8936;49.010;12.120;2023-02-01T10:40:48;98143.31;;;5.12;100.00
17635;BME280;8936;49.010;12.120;2023-02-01T10:43:15;98157.22;;;5.08;100.00
17635;BME280;8936;49.010;12.120;2023-02-01T10:45:41;98155.75;;;5.12;100.00
17635;BME280;8936;49.010;12.120;2023-02-01T10:48:09;98147.06;;;5.23;100.00
17635;BME280;8936;49.010;12.120;2023-02-01T10:50:37;98145.44;;;5.22;100.00
17635;BME280;8936;49.010;12.120;2023-02-01T10:53:06;98155.97;;;5.28;100.00
17635;BME280;8936;49.010;12.120;2023-02-01T10:55:37;98166.84;;;5.20;100.00
17635;BME280;8936;49.010;12.120;2023-02-01T10:58:05;98165.00;;;5.21;100.00
17635;BME280;8936;49.010;12.120;2023-02-01T11:00:40;98174.94;;;5.25;100.00
17635;BME280;8936;49.010;12.120;2023-02-01T11:03:26;98190.66;;;5.20;100.00
17635;BME280;8936;49.010;12.120;2023-02-01T11:05:57;98182.44;;;5.28;100.00
17635;BME280;8936;49.010;12.120;2023-02-01T11:08:23;98191.72;;;5.19;100.00
17635;BME280;8936;49.010;12.120;2023-02-01T11:10:56;98190.41;;;5.10;100.00
17635;BME280;8936;49.010;12.120;2023-02-01T11:13:23;98200.81;;;5.05;100.00
17635;BME280;8936;49.010;12.120;2023-02-01T11:15:54;98197.72;;;5.08;100.00
17635;BME280;8936;49.010;12.120;2023-02-01T11:18:24;98188.31;;;5.12;100.00
17635;BME280;8936;49.010;12.120;2023-02-01T11:20:51;98199.72;;;5.13;100.00
17635;BME280;8936;49.010;12.120;2023-02-01T11:23:21;98187.06;;;5.15;100.00
17635;BME280;8936;49.010;12.120;2023-02-01T11:25:49;98181.84;;;5.26;100.00
17635;BME280;8936;49.010;12.120;2023-02-01T11:28:17;98177.28;;;5.33;100.00
17635;BME280;8936;49.010;12.120;2023-02-01T11:30:44;98167.44;;;5.22;100.00
17635;BME280;8936;49.010;12.120;2023-02-01T11:33:12;98181.03;;;5.44;100.00
17635;BME280;8936;49.010;12.120;2023-02-01T11:35:41;98177.41;;;5.38;100.00
17635;BME280;8936;49.010;12.120;2023-02-01T11:38:12;98172.72;;;5.40;100.00
17635;BME280;8936;49.010;12.120;2023-02-01T11:40:40;98157.84;;;5.39;100.00
17635;BME280;8936;49.010;12.120;2023-02-01T11:43:08;98167.09;;;5.49;100.00
17635;BME280;8936;49.010;12.120;2023-02-01T11:45:35;98166.81;;;5.38;100.00
17635;BME280;8936;49.010;12.120;2023-02-01T11:48:08;98157.03;;;5.39;100.00
17635;BME280;8936;49.010;12.120;2023-02-01T11:50:37;98153.56;;;5.38;100.00
17635;BME280;8936;49.010;12.120;2023-02-01T11:53:18;98123.41;;;5.39;100.00
17635;BME280;8936;49.010;12.120;2023-02-01T11:55:50;98129.72;;;5.38;100.00
17635;BME280;8936;49.010;12.120;2023-02-01T11:58:22;98117.91;;;5.41;100.00
17635;BME280;8936;49.010;12.120;2023-02-01T12:00:59;98113.28;;;5.36;100.00
17635;BME280;8936;49.010;12.120;2023-02-01T12:03:49;98116.41;;;5.45;100.00
17635;BME280;8936;49.010;12.120;2023-02-01T12:06:21;98116.31;;;5.52;100.00
17635;BME280;8936;49.010;12.120;2023-02-01T12:08:58;98112.41;;;5.54;100.00
17635;BME280;8936;49.010;12.120;2023-02-01T12:11:30;98108.47;;;5.45;100.00
17635;BME280;8936;49.010;12.120;2023-02-01T12:14:02;98110.94;;;5.58;100.00
17635;BME280;8936;49.010;12.120;2023-02-01T12:16:33;98101.84;;;5.66;100.00
17635;BME280;8936;49.010;12.120;2023-02-01T12:19:11;98107.47;;;5.58;100.00
17635;BME280;8936;49.010;12.120;2023-02-01T12:21:47;98106.34;;;5.65;100.00
17635;BME280;8936;49.010;12.120;2023-02-01T12:24:21;98113.84;;;5.68;100.00
17635;BME280;8936;49.010;12.120;2023-02-01T12:26:55;98107.53;;;5.69;100.00
17635;BME280;8936;49.010;12.120;2023-02-01T12:29:33;98095.19;;;5.75;100.00
17635;BME280;8936;49.010;12.120;2023-02-01T12:32:06;98105.34;;;5.78;100.00
17635;BME280;8936;49.010;12.120;2023-02-01T12:34:48;98115.00;;;5.72;100.00
17635;BME280;8936;49.010;12.120;2023-02-01T12:37:20;98106.59;;;5.75;100.00
17635;BME280;8936;49.010;12.120;2023-02-01T12:39:52;98109.94;;;5.71;100.00
17635;BME280;8936;49.010;12.120;2023-02-01T12:42:23;98114.06;;;5.67;100.00
17635;BME280;8936;49.010;12.120;2023-02-01T12:44:53;98109.81;;;5.66;100.00
17635;BME280;8936;49.010;12.120;2023-02-01T12:47:22;98119.03;;;5.75;100.00
17635;BME280;8936;49.010;12.120;2023-02-01T12:49:53;98119.50;;;5.72;100.00
17635;BME280;8936;49.010;12.120;2023-02-01T12:52:23;98109.25;;;5.75;100.00
17635;BME280;8936;49.010;12.120;2023-02-01T12:54:55;98114.09;;;5.78;100.00
17635;BME280;8936;49.010;12.120;2023-02-01T12:57:25;98109.00;;;5.65;100.00
17635;BME280;8936;49.010;12.120;2023-02-01T12:59:54;98118.59;;;5.78;100.00
17635;BME280;8936;49.010;12.120;2023-02-01T13:02:24;98115.56;;;5.63;100.00
17635;BME280;8936;49.010;12.120;2023-02-01T13:04:55;98115.06;;;5.54;100.00
17635;BME280;8936;49.010;12.120;2023-02-01T13:07:27;98123.16;;;5.59;100.00
17635;BME280;8936;49.010;12.120;2023-02-01T13:42:05;98093.66;;;5.56;100.00
17635;BME280;8936;49.010;12.120;2023-02-01T13:44:41;98087.41;;;5.50;100.00
17635;BME280;8936;49.010;12.120;2023-02-01T13:47:11;98092.47;;;5.52;100.00